createdAt,value
2023-07-04T00:00:51.486Z,100624.84
2023-07-04T00:03:37.452Z,100617.00
2023-07-04T00:06:31.266Z,100613.50
2023-07-04T00:09:23.243Z,100613.69
2023-07-04T00:12:09.543Z,100619.63
2023-07-04T00:15:01.255Z,100612.22
2023-07-04T00:17:46.080Z,100616.91
2023-07-04T00:20:41.253Z,100619.56
2023-07-04T00:23:35.311Z,100608.28
2023-07-04T00:26:22.106Z,100614.03
2023-07-04T00:29:13.249Z,100614.84
2023-07-04T00:32:06.270Z,100607.44
2023-07-04T00:34:57.271Z,100614.63
2023-07-04T00:37:51.298Z,100617.63
2023-07-04T00:40:36.042Z,100614.34
2023-07-04T00:43:27.279Z,100613.28
2023-07-04T00:46:22.303Z,100610.63
2023-07-04T00:49:25.282Z,100609.44
2023-07-04T00:52:34.018Z,100609.00
2023-07-04T00:55:26.281Z,100613.69
2023-07-04T00:58:11.489Z,100620.69
2023-07-04T01:01:03.271Z,100611.00
2023-07-04T01:03:55.306Z,100626.03
2023-07-04T01:06:55.260Z,100621.28
2023-07-04T01:09:51.282Z,100622.34
2023-07-04T01:12:37.638Z,100614.50
2023-07-04T01:15:31.309Z,100617.19
2023-07-04T01:18:16.379Z,100615.56
2023-07-04T01:21:09.279Z,100614.13
2023-07-04T01:24:06.366Z,100611.59
2023-07-04T01:26:58.277Z,100609.31
2023-07-04T01:29:44.550Z,100612.16
2023-07-04T01:32:36.330Z,100616.66
2023-07-04T01:35:23.663Z,100613.59
2023-07-04T01:38:15.279Z,100610.09
2023-07-04T01:41:00.018Z,100608.84
2023-07-04T01:44:04.289Z,100615.84
2023-07-04T01:46:49.172Z,100608.16
2023-07-04T01:49:40.286Z,100607.16
2023-07-04T01:52:26.808Z,100608.91
2023-07-04T01:55:20.296Z,100611.88
2023-07-04T01:58:05.069Z,100609.19
2023-07-04T02:00:56.352Z,100611.72
2023-07-04T02:03:41.540Z,100607.00
2023-07-04T02:06:33.323Z,100611.88
2023-07-04T02:09:18.312Z,100613.31
2023-07-04T02:12:10.307Z,100617.38
2023-07-04T02:15:02.376Z,100614.53
2023-07-04T02:17:55.305Z,100612.16
2023-07-04T02:20:40.212Z,100612.41
2023-07-04T02:23:31.312Z,100616.75
2023-07-04T02:26:22.308Z,100616.50
2023-07-04T02:29:07.444Z,100620.38
2023-07-04T02:31:59.301Z,100624.06
2023-07-04T02:34:44.295Z,100623.59
2023-07-04T02:37:35.309Z,100630.78
2023-07-04T02:40:20.175Z,100628.09
2023-07-04T02:43:11.305Z,100625.44
2023-07-04T02:46:04.963Z,100633.78
2023-07-04T02:48:56.321Z,100639.00
2023-07-04T02:51:41.496Z,100627.81
2023-07-04T02:54:33.321Z,100622.88
2023-07-04T02:57:25.334Z,100627.38
2023-07-04T03:00:17.361Z,100626.75
2023-07-04T03:03:02.554Z,100629.66
2023-07-04T03:05:54.332Z,100629.00
2023-07-04T03:08:39.435Z,100630.16
2023-07-04T03:11:31.344Z,100631.47
2023-07-04T03:14:16.100Z,100642.31
2023-07-04T03:17:07.384Z,100638.94
2023-07-04T03:19:52.998Z,100641.03
2023-07-04T03:22:46.336Z,100639.47
2023-07-04T03:25:31.393Z,100642.16
2023-07-04T03:28:22.331Z,100640.88
2023-07-04T03:31:07.286Z,100644.56
2023-07-04T03:33:58.335Z,100643.66
2023-07-04T03:36:43.460Z,100642.34
2023-07-04T03:39:35.343Z,100637.75
2023-07-04T03:42:20.209Z,100638.13
2023-07-04T03:45:20.338Z,100644.91
2023-07-04T03:48:11.572Z,100652.91
2023-07-04T03:51:03.313Z,100648.50
2023-07-04T03:53:49.819Z,100644.44
2023-07-04T03:56:41.324Z,100646.09
2023-07-04T03:59:32.325Z,100649.41
2023-07-04T04:02:23.384Z,100646.31
2023-07-04T04:05:08.900Z,100656.56
2023-07-04T04:08:00.372Z,100647.78
2023-07-04T04:10:45.284Z,100657.59
2023-07-04T04:13:37.438Z,100656.22
2023-07-04T04:16:23.257Z,100653.81
2023-07-04T04:19:22.342Z,100655.13
2023-07-04T04:22:20.351Z,100664.13
2023-07-04T04:25:16.354Z,100653.94
2023-07-04T04:28:08.327Z,100659.81
2023-07-04T04:30:53.621Z,100659.47
2023-07-04T04:33:45.344Z,100657.22
2023-07-04T04:36:31.440Z,100666.88
2023-07-04T04:39:23.344Z,100664.47
2023-07-04T04:42:15.470Z,100666.19
2023-07-04T04:45:15.537Z,100670.75
2023-07-04T04:48:07.343Z,100674.06
2023-07-04T04:50:59.343Z,100664.03
2023-07-04T04:53:49.474Z,100664.03
2023-07-04T04:56:41.380Z,100665.22
2023-07-04T04:59:26.498Z,100670.81
2023-07-04T05:02:18.327Z,100679.91
2023-07-04T05:05:03.598Z,100684.28
2023-07-04T05:07:56.387Z,100675.59
2023-07-04T05:10:54.985Z,100679.72
2023-07-04T05:13:48.400Z,100676.84
2023-07-04T05:16:34.010Z,100674.44
2023-07-04T05:19:25.430Z,100679.66
2023-07-04T05:22:10.603Z,100683.81
2023-07-04T05:25:04.378Z,100689.25
2023-07-04T05:27:58.346Z,100686.97
2023-07-04T05:30:49.502Z,100684.97
2023-07-04T05:33:35.579Z,100686.31
2023-07-04T05:36:33.405Z,100680.75
2023-07-04T05:39:18.096Z,100679.16
2023-07-04T05:42:09.366Z,100678.91
2023-07-04T05:45:01.398Z,100675.53
2023-07-04T05:47:52.413Z,100676.66
2023-07-04T05:50:37.178Z,100690.25
2023-07-04T05:53:31.359Z,100699.94
2023-07-04T05:56:25.983Z,100699.38
2023-07-04T05:59:17.359Z,100700.84
2023-07-04T06:02:02.803Z,100710.31
2023-07-04T06:04:54.486Z,100712.34
2023-07-04T06:07:39.764Z,100707.22
2023-07-04T06:10:31.377Z,100714.44
2023-07-04T06:13:16.240Z,100712.28
2023-07-04T06:16:10.448Z,100718.13
2023-07-04T06:18:55.451Z,100721.78
2023-07-04T06:21:47.397Z,100726.94
2023-07-04T06:24:39.368Z,100726.16
2023-07-04T06:27:32.408Z,100734.47
2023-07-04T06:30:17.179Z,100727.84
2023-07-04T06:33:13.373Z,100729.09
2023-07-04T06:35:58.645Z,100727.59
2023-07-04T06:38:50.384Z,100727.03
2023-07-04T06:41:35.559Z,100744.78
2023-07-04T06:44:27.388Z,100737.75
2023-07-04T06:47:12.581Z,100736.53
2023-07-04T06:50:04.389Z,100732.41
2023-07-04T06:52:50.195Z,100733.69
2023-07-04T06:55:41.398Z,100736.97
2023-07-04T06:58:32.400Z,100740.47
2023-07-04T07:01:25.423Z,100742.13
2023-07-04T07:04:19.394Z,100745.25
2023-07-04T07:07:12.406Z,100743.53
2023-07-04T07:09:57.315Z,100744.59
2023-07-04T07:12:48.383Z,100746.25
2023-07-04T07:15:33.153Z,100759.69
2023-07-04T07:18:25.411Z,100764.41
2023-07-04T07:21:12.630Z,100760.09
2023-07-04T07:24:08.395Z,100755.94
2023-07-04T07:26:54.896Z,100761.31
2023-07-04T07:29:49.315Z,100759.88
2023-07-04T07:32:34.062Z,100756.09
2023-07-04T07:35:25.393Z,100759.31
2023-07-04T07:38:10.310Z,100761.94
2023-07-04T07:41:02.402Z,100758.97
2023-07-04T07:43:54.384Z,100758.56
2023-07-04T07:46:46.000Z,100758.53
2023-07-04T07:49:37.398Z,100757.56
2023-07-04T07:52:23.216Z,100755.59
2023-07-04T07:55:15.460Z,100741.38
2023-07-04T07:58:07.393Z,100732.13
2023-07-04T08:00:52.470Z,100736.78
2023-07-04T08:03:44.567Z,100744.84
2023-07-04T08:06:31.331Z,100742.44
2023-07-04T08:09:24.428Z,100738.03
2023-07-04T08:12:16.439Z,100747.88
2023-07-04T08:15:01.761Z,100749.44
2023-07-04T08:17:53.423Z,100753.00
2023-07-04T08:20:44.425Z,100749.16
2023-07-04T08:23:36.435Z,100751.16
2023-07-04T08:26:24.279Z,100750.38
2023-07-04T08:29:16.426Z,100744.38
2023-07-04T08:32:01.519Z,100744.41
2023-07-04T08:34:54.420Z,100739.09
2023-07-04T08:37:39.241Z,100745.56
2023-07-04T08:40:30.430Z,100737.81
2023-07-04T08:43:20.280Z,100740.69
2023-07-04T08:46:20.464Z,100754.00
2023-07-04T08:49:08.725Z,100750.81
2023-07-04T08:52:15.439Z,100737.97
2023-07-04T08:55:00.564Z,100736.88
2023-07-04T08:58:06.448Z,100735.78
2023-07-04T09:00:53.165Z,100738.97
2023-07-04T09:04:04.461Z,100738.56
2023-07-04T09:07:17.437Z,100741.47
2023-07-04T09:10:30.453Z,100759.28
2023-07-04T09:13:33.527Z,100748.03
2023-07-04T09:16:37.503Z,100751.53
2023-07-04T09:19:29.462Z,100755.03
2023-07-04T09:22:15.065Z,100757.69
2023-07-04T09:25:06.469Z,100753.22
2023-07-04T09:27:51.337Z,100765.09
2023-07-04T09:30:46.790Z,100752.13
2023-07-04T09:33:43.459Z,100757.03
2023-07-04T09:36:33.497Z,100756.25
2023-07-04T09:39:25.464Z,100758.88
2023-07-04T09:42:20.957Z,100760.03
2023-07-04T09:45:30.521Z,100758.97
2023-07-04T09:48:31.451Z,100755.16
2023-07-04T09:51:38.470Z,100761.13
2023-07-04T09:54:29.462Z,100756.41
2023-07-04T09:57:28.475Z,100766.25
2023-07-04T10:00:27.469Z,100772.22
2023-07-04T10:03:13.933Z,100769.81
2023-07-04T10:06:05.484Z,100761.47
2023-07-04T10:08:56.159Z,100756.94
2023-07-04T10:11:47.484Z,100760.22
2023-07-04T10:14:42.473Z,100749.72
2023-07-04T10:17:34.038Z,100741.47
2023-07-04T10:20:25.475Z,100753.31
2023-07-04T10:23:16.487Z,100752.41
2023-07-04T10:26:08.481Z,100747.41
2023-07-04T10:28:59.498Z,100736.09
2023-07-04T10:31:45.746Z,100731.19
2023-07-04T10:34:39.470Z,100743.13
2023-07-04T10:37:35.526Z,100732.81
2023-07-04T10:40:28.497Z,100731.69
2023-07-04T10:43:28.495Z,100720.84
2023-07-04T10:46:34.527Z,100724.38
2023-07-04T10:49:22.670Z,100724.84
2023-07-04T10:52:22.496Z,100733.31
2023-07-04T10:55:26.537Z,100720.28
2023-07-04T11:11:54.498Z,100719.03
2023-07-04T11:14:47.539Z,100726.72
2023-07-04T11:17:43.538Z,100721.81
2023-07-04T11:20:58.535Z,100727.69
2023-07-04T11:24:01.508Z,100729.22
2023-07-04T11:26:50.319Z,100719.19
2023-07-04T11:29:55.527Z,100720.38
2023-07-04T11:32:40.590Z,100718.41
2023-07-04T11:35:39.532Z,100723.00
2023-07-04T11:38:24.621Z,100723.03
2023-07-04T11:41:16.535Z,100723.19
2023-07-04T11:44:17.550Z,100715.13
2023-07-04T11:47:14.583Z,100707.81
2023-07-04T11:50:08.791Z,100710.53
2023-07-04T11:53:04.595Z,100707.78
2023-07-04T11:56:33.524Z,100697.19
2023-07-04T11:59:24.510Z,100700.25
2023-07-04T12:02:29.911Z,100699.28
2023-07-04T12:05:39.513Z,100695.78
2023-07-04T12:08:55.537Z,100698.75
2023-07-04T12:12:03.539Z,100696.34
2023-07-04T12:15:09.581Z,100688.09
2023-07-04T12:18:05.576Z,100688.19
2023-07-04T12:20:51.188Z,100678.91
2023-07-04T12:23:44.540Z,100687.28
2023-07-04T12:26:31.546Z,100682.97
2023-07-04T12:29:24.124Z,100680.16
2023-07-04T12:32:29.728Z,100679.16
2023-07-04T12:35:27.542Z,100684.69
2023-07-04T12:38:12.687Z,100686.16
2023-07-04T12:41:05.550Z,100672.59
2023-07-04T12:49:43.746Z,100669.44
2023-07-04T12:52:41.569Z,100674.94
2023-07-04T12:55:32.661Z,100669.56
2023-07-04T12:58:25.718Z,100673.28
2023-07-04T13:01:12.730Z,100664.81
2023-07-04T13:04:23.553Z,100666.78
2023-07-04T13:07:08.444Z,100667.72
2023-07-04T13:10:06.545Z,100666.66
2023-07-04T13:12:58.625Z,100659.28
2023-07-04T13:15:50.650Z,100659.38
2023-07-04T13:18:42.378Z,100658.16
2023-07-04T13:21:46.569Z,100662.13
2023-07-04T13:27:32.581Z,100648.97
2023-07-04T13:30:32.500Z,100645.69
2023-07-04T13:33:41.612Z,100643.78
2023-07-04T13:36:45.587Z,100638.03
2023-07-04T13:42:25.564Z,100658.28
2023-07-04T13:45:13.732Z,100635.25
2023-07-04T13:48:05.573Z,100626.47
2023-07-04T13:50:50.643Z,100630.97
2023-07-04T13:53:41.588Z,100635.19
2023-07-04T13:56:27.110Z,100638.63
2023-07-04T13:59:18.622Z,100637.13
2023-07-04T14:05:40.877Z,100637.00
2023-07-04T14:08:10.589Z,100624.81
2023-07-04T14:11:10.598Z,100641.34
2023-07-04T14:16:20.827Z,100632.94
2023-07-04T14:17:30.401Z,100629.66
2023-07-04T14:20:24.872Z,100625.28
2023-07-04T14:23:10.264Z,100624.19
2023-07-04T14:26:01.598Z,100620.69
2023-07-04T14:28:46.468Z,100619.31
2023-07-04T14:31:38.663Z,100612.75
2023-07-04T14:34:30.590Z,100613.47
2023-07-04T14:37:21.618Z,100617.16
2023-07-04T14:40:22.100Z,100617.72
2023-07-04T14:43:18.609Z,100601.81
2023-07-04T14:46:07.392Z,100599.91
2023-07-04T14:48:59.623Z,100605.72
2023-07-04T14:51:50.605Z,100597.06
2023-07-04T14:54:42.621Z,100599.47
2023-07-04T14:57:34.606Z,100601.69
2023-07-04T15:00:29.684Z,100600.41
2023-07-04T15:03:21.741Z,100594.13
2023-07-04T15:06:08.233Z,100589.75
2023-07-04T15:08:59.627Z,100600.22
2023-07-04T15:11:50.611Z,100593.03
2023-07-04T15:14:41.660Z,100595.28
2023-07-04T15:17:32.660Z,100593.50
2023-07-04T15:20:17.612Z,100587.28
2023-07-04T15:23:09.653Z,100588.84
2023-07-04T15:26:03.853Z,100586.03
2023-07-04T15:29:06.623Z,100580.56
2023-07-04T15:31:52.683Z,100572.38
2023-07-04T15:34:46.679Z,100569.97
2023-07-04T15:37:31.652Z,100569.59
2023-07-04T15:40:23.623Z,100556.34
2023-07-04T15:43:08.708Z,100546.28
2023-07-04T15:46:02.674Z,100549.44
2023-07-04T15:48:47.785Z,100543.56
2023-07-04T15:51:39.682Z,100535.13
2023-07-04T15:54:26.167Z,100539.63
2023-07-04T15:57:17.624Z,100547.56
2023-07-04T16:00:02.544Z,100542.66
2023-07-04T16:02:53.716Z,100539.88
2023-07-04T16:05:50.849Z,100535.72
2023-07-04T16:08:38.475Z,100532.25
2023-07-04T16:11:30.635Z,100531.56
2023-07-04T16:14:21.839Z,100538.88
2023-07-04T16:17:13.625Z,100522.69
2023-07-04T16:20:04.655Z,100525.34
2023-07-04T16:22:56.646Z,100513.09
2023-07-04T16:25:42.730Z,100501.78
2023-07-04T16:28:34.651Z,100498.63
2023-07-04T16:31:25.682Z,100496.31
2023-07-04T16:34:16.661Z,100500.00
2023-07-04T16:37:01.564Z,100497.38
2023-07-04T16:39:52.662Z,100499.59
2023-07-04T16:42:37.669Z,100497.47
2023-07-04T16:45:28.762Z,100490.66
2023-07-04T16:48:13.987Z,100481.81
2023-07-04T16:51:06.660Z,100475.19
2023-07-04T16:53:51.465Z,100478.88
2023-07-04T16:56:42.655Z,100474.09
2023-07-04T16:59:33.667Z,100476.81
2023-07-04T17:02:25.721Z,100486.41
2023-07-04T17:05:10.672Z,100483.34
2023-07-04T17:08:01.662Z,100476.44
2023-07-04T17:10:50.473Z,100469.84
2023-07-04T17:13:42.709Z,100468.13
2023-07-04T17:16:34.707Z,100469.00
2023-07-04T17:19:25.683Z,100469.44
2023-07-04T17:22:16.665Z,100468.28
2023-07-04T17:25:16.542Z,100460.38
2023-07-04T17:28:01.686Z,100456.09
2023-07-04T17:30:53.685Z,100451.06
2023-07-04T17:33:45.676Z,100450.31
2023-07-04T17:36:32.448Z,100446.22
2023-07-04T17:39:23.686Z,100439.28
2023-07-04T17:42:14.683Z,100444.31
2023-07-04T17:45:06.705Z,100445.31
2023-07-04T17:47:52.482Z,100435.06
2023-07-04T17:50:43.676Z,100425.94
2023-07-04T17:53:28.582Z,100428.44
2023-07-04T17:56:24.679Z,100416.84
2023-07-04T17:59:11.383Z,100426.78
2023-07-04T18:02:02.682Z,100429.47
2023-07-04T18:04:47.755Z,100425.72
2023-07-04T18:07:39.693Z,100422.84
2023-07-04T18:10:24.517Z,100429.00
2023-07-04T18:13:22.712Z,100421.72
2023-07-04T18:16:21.697Z,100419.09
2023-07-04T18:19:13.698Z,100421.63
2023-07-04T18:21:58.648Z,100425.22
2023-07-04T18:24:52.703Z,100409.28
2023-07-04T18:27:38.008Z,100410.59
2023-07-04T18:30:29.710Z,100401.59
2023-07-04T18:33:15.438Z,100392.91
2023-07-04T18:36:06.685Z,100382.91
2023-07-04T18:38:51.967Z,100388.88
2023-07-04T18:41:45.690Z,100379.81
2023-07-04T18:44:36.704Z,100381.69
2023-07-04T18:47:27.736Z,100374.41
2023-07-04T18:50:18.711Z,100378.50
2023-07-04T18:53:03.965Z,100377.78
2023-07-04T18:55:55.701Z,100368.53
2023-07-04T18:58:42.868Z,100368.03
2023-07-04T19:01:36.761Z,100363.59
2023-07-04T19:04:21.739Z,100363.47
2023-07-04T19:07:12.703Z,100365.44
2023-07-04T19:09:58.437Z,100365.91
2023-07-04T19:12:49.709Z,100364.25
2023-07-04T19:15:41.769Z,100365.25
2023-07-04T19:18:33.793Z,100380.00
2023-07-04T19:21:19.429Z,100389.88
2023-07-04T19:24:11.733Z,100394.31
2023-07-04T19:26:57.161Z,100389.53
2023-07-04T19:29:49.747Z,100395.91
2023-07-04T19:32:40.735Z,100399.19
2023-07-04T19:35:25.607Z,100400.25
2023-07-04T19:38:17.719Z,100401.44
2023-07-04T19:41:11.729Z,100414.06
2023-07-04T19:43:56.419Z,100403.75
2023-07-04T19:46:48.020Z,100396.44
2023-07-04T19:49:33.222Z,100403.22
2023-07-04T19:52:24.725Z,100398.34
2023-07-04T19:55:09.511Z,100389.44
2023-07-04T19:58:01.733Z,100380.63
2023-07-04T20:00:47.363Z,100384.06
2023-07-04T20:03:40.860Z,100386.59
2023-07-04T20:06:26.416Z,100387.38
2023-07-04T20:09:17.758Z,100383.09
2023-07-04T20:12:08.734Z,100389.19
2023-07-04T20:14:59.948Z,100389.97
2023-07-04T20:17:51.780Z,100379.13
2023-07-04T20:20:37.660Z,100391.03
2023-07-04T20:23:28.746Z,100380.75
2023-07-04T20:26:21.913Z,100381.94
2023-07-04T20:29:07.080Z,100375.47
2023-07-04T20:31:58.823Z,100372.03
2023-07-04T20:34:44.120Z,100375.47
2023-07-04T20:37:35.761Z,100371.97
2023-07-04T20:40:20.553Z,100365.38
2023-07-04T20:43:16.753Z,100363.72
2023-07-04T20:46:01.777Z,100357.22
2023-07-04T20:48:53.755Z,100349.53
2023-07-04T20:51:38.564Z,100352.09
2023-07-04T20:54:29.773Z,100349.41
2023-07-04T20:57:14.844Z,100340.75
2023-07-04T21:00:07.758Z,100334.47
2023-07-04T21:02:52.490Z,100324.75
2023-07-04T21:05:44.748Z,100320.50
2023-07-04T21:08:29.859Z,100305.94
2023-07-04T21:11:21.753Z,100308.41
2023-07-04T21:14:20.766Z,100304.94
2023-07-04T21:17:18.909Z,100310.66
2023-07-04T21:20:14.768Z,100305.09
2023-07-04T21:23:06.763Z,100299.56
2023-07-04T21:26:03.774Z,100275.94
2023-07-04T21:28:48.574Z,100271.72
2023-07-04T21:31:39.776Z,100278.44
2023-07-04T21:34:24.876Z,100280.84
2023-07-04T21:37:16.773Z,100283.75
2023-07-04T21:40:02.163Z,100285.03
2023-07-04T21:42:53.762Z,100282.34
2023-07-04T21:45:40.649Z,100278.69
2023-07-04T21:48:36.793Z,100273.63
2023-07-04T21:51:21.552Z,100277.31
2023-07-04T21:54:12.780Z,100270.66
2023-07-04T21:57:03.766Z,100272.31
2023-07-04T21:59:49.178Z,100260.38
2023-07-04T22:02:40.927Z,100256.41
2023-07-04T22:05:32.784Z,100257.81
2023-07-04T22:08:19.043Z,100247.53
2023-07-04T22:11:10.788Z,100244.25
2023-07-04T22:14:01.963Z,100231.44
2023-07-04T22:16:53.802Z,100236.78
2023-07-04T22:19:45.794Z,100242.94
2023-07-04T22:22:37.795Z,100246.28
2023-07-04T22:25:29.825Z,100250.47
2023-07-04T22:28:20.790Z,100249.22
2023-07-04T22:31:08.459Z,100239.78
2023-07-04T22:34:12.788Z,100236.69
2023-07-04T22:37:03.801Z,100226.66
2023-07-04T22:39:48.616Z,100223.22
2023-07-04T22:42:39.792Z,100218.75
2023-07-04T22:45:24.496Z,100220.75
2023-07-04T22:48:15.794Z,100213.09
2023-07-04T22:51:02.545Z,100217.41
2023-07-04T22:53:56.822Z,100222.91
2023-07-04T22:56:47.798Z,100225.97
2023-07-04T22:59:32.664Z,100220.38
2023-07-04T23:02:23.855Z,100217.34
2023-07-04T23:05:09.086Z,100223.81
2023-07-04T23:08:00.811Z,100218.13
2023-07-04T23:10:45.585Z,100213.44
2023-07-04T23:13:36.872Z,100224.75
2023-07-04T23:16:29.026Z,100230.50
2023-07-04T23:19:20.810Z,100213.66
2023-07-04T23:22:05.656Z,100203.16
2023-07-04T23:24:59.845Z,100201.53
2023-07-04T23:27:53.814Z,100194.69
2023-07-04T23:30:44.821Z,100197.84
2023-07-04T23:33:29.616Z,100183.53
2023-07-04T23:36:23.821Z,100188.56
2023-07-04T23:39:14.816Z,100172.38
2023-07-04T23:41:59.863Z,100173.13
2023-07-04T23:44:51.811Z,100172.66
2023-07-04T23:47:36.676Z,100167.16
2023-07-04T23:50:29.821Z,100161.34
2023-07-04T23:53:21.812Z,100150.84
2023-07-04T23:56:07.462Z,100150.09
2023-07-04T23:58:58.818Z,100132.91
